Time;durP1;ratioP1;P1;durP2;ratioP2;P2;SDS_P1;SDS_P2;PMS_P1;PMS_P2;Temp;Humidity;BMP_temperature;BMP_pressure;BME280_temperature;BME280_humidity;BME280_pressure;Samples;Min_cycle;Max_cycle;Signal;HPM_P1;HPM_P2
2022/02/02 00:03:05;;;;;;;;;;;;;;;2.02;100.00;95242.22;10507853;28;1792;-71
2022/02/02 00:08:12;;;;;;;;;;;;;;;1.96;100.00;95233.34;10505378;28;2026;-71
2022/02/02 00:13:29;;;;;;;;;;;;;;;2.03;100.00;95242.00;10503576;28;1954;-72
2022/02/02 00:18:47;;;;;;;;;;;;;;;2.07;100.00;95223.78;10510538;28;1815;-72
2022/02/02 00:23:58;;;;;;;;;;;;;;;2.11;100.00;95233.69;10513309;28;1980;-72
2022/02/02 00:29:07;;;;;;;;;;;;;;;2.24;100.00;95216.72;10514705;28;2471;-72
2022/02/02 00:34:15;;;;;;;;;;;;;;;2.31;100.00;95208.63;10527336;28;1847;-72
2022/02/02 00:39:19;;;;;;;;;;;;;;;2.36;100.00;95224.66;10527264;28;1865;-70
2022/02/02 00:44:22;;;;;;;;;;;;;;;2.39;100.00;95213.56;10533099;28;1914;-72
2022/02/02 00:49:25;;;;;;;;;;;;;;;2.43;100.00;95172.25;10537386;28;1775;-72
2022/02/02 00:54:29;;;;;;;;;;;;;;;2.37;100.00;95192.56;10544599;28;1953;-72
2022/02/02 00:59:32;;;;;;;;;;;;;;;2.11;100.00;95185.97;10530368;28;2028;-71
2022/02/02 01:04:35;;;;;;;;;;;;;;;2.05;100.00;95181.59;10550761;28;1999;-71
2022/02/02 01:09:44;;;;;;;;;;;2.70;99.90;;;2.08;100.00;95189.06;10549681;28;2035;-72
2022/02/02 01:20:16;;;;;;;;;;;;;;;2.14;100.00;95180.19;10531836;28;1893;-72
2022/02/02 01:30:41;;;;;;;;;;;;;;;2.38;100.00;95180.13;10518696;28;2184;-72
2022/02/02 01:35:45;;;;;;;;;;;;;;;2.47;100.00;95199.09;10519880;28;1854;-72
2022/02/02 01:40:53;;;;;;;;;;;;;;;2.42;100.00;95202.47;10512970;28;1856;-72
2022/02/02 01:46:01;;;;;;;;;;;;;;;2.37;100.00;95173.22;10516248;28;1983;-72
2022/02/02 01:51:26;;;;;;;;;;;;;;;2.32;100.00;95171.25;10517023;28;1864;-71
2022/02/02 01:56:29;;;;;;;;;;;;;;;2.29;100.00;95155.81;10508239;28;1780;-72
2022/02/02 02:01:32;;;;;;;;;;;3.10;99.90;;;2.26;100.00;95150.19;10514657;28;1815;-72
2022/02/02 02:06:36;;;;;;;;;;;3.10;99.90;;;2.25;100.00;95153.88;10514624;28;2204;-72
2022/02/02 02:11:43;;;;;;;;;;;3.20;99.90;;;2.33;100.00;95161.44;10539242;28;1845;-72
2022/02/02 02:16:47;;;;;;;;;;;3.20;99.90;;;2.35;100.00;95149.53;10528180;22;1977;-72
2022/02/02 02:21:52;;;;;;;;;;;3.20;99.90;;;2.39;100.00;95139.28;10516848;28;1897;-70
2022/02/02 02:26:58;;;;;;;;;;;3.30;99.90;;;2.38;100.00;95150.94;10515220;28;1914;-71
2022/02/02 02:32:16;;;;;;;;;;;3.40;99.90;;;2.38;100.00;95148.28;10493429;28;1817;-71
2022/02/02 02:58:56;;;;;;;;;;;3.40;99.90;;;2.69;100.00;95161.06;10491884;28;1960;-70
2022/02/02 03:31:20;;;;;;;;;;;3.80;99.90;;;2.77;100.00;95146.59;10484517;28;1958;-69
2022/02/02 03:58:13;;;;;;;;;;;3.90;99.90;;;2.80;100.00;95166.53;10489260;28;1905;-70
2022/02/02 04:03:42;;;;;;;;;;;3.70;99.90;;;2.85;100.00;95169.28;10490000;28;2006;-70
2022/02/02 04:08:46;;;;;;;;;;;3.70;99.90;;;2.91;100.00;95174.41;10509607;28;1913;-68
2022/02/02 04:14:56;;;;;;;;;;;3.80;99.90;;;2.94;100.00;95167.84;10496615;28;2017;-69
2022/02/02 04:51:58;;;;;;;;;;;3.90;99.90;;;2.87;100.00;95173.31;10494599;28;2001;-68
2022/02/02 05:07:56;;;;;;;;;;;3.80;99.90;;;2.89;100.00;95186.34;10487908;28;2018;-69
2022/02/02 05:56:20;;;;;;;;;;;4.00;99.90;;;3.08;100.00;95243.50;10492068;28;1954;-67
2022/02/02 06:01:24;;;;;;;;;;;4.10;99.90;;;3.05;100.00;95221.91;10503745;28;2025;-67
2022/02/02 06:06:32;;;;;;;;;;;4.00;99.90;;;3.13;100.00;95238.28;10498123;28;1978;-68
2022/02/02 06:11:37;;;;;;;;;;;4.00;99.90;;;3.15;100.00;95241.47;10496014;28;1931;-68
2022/02/02 06:16:40;;;;;;;;;;;4.10;99.90;;;3.13;100.00;95240.94;10495688;28;1967;-68
2022/02/02 06:21:43;;;;;;;;;;;4.10;99.90;;;3.16;100.00;95259.03;10494835;28;2009;-67
2022/02/02 06:26:47;;;;;;;;;;;4.10;99.90;;;3.08;100.00;95304.56;10494186;28;1910;-68
2022/02/02 06:31:52;;;;;;;;;;;4.10;99.90;;;2.98;100.00;95354.81;10496389;28;2030;-67
2022/02/02 06:36:55;;;;;;;;;;;3.60;99.90;;;2.15;100.00;95356.78;10492981;28;1912;-71
2022/02/02 06:41:58;;;;;;;;;;;2.70;99.90;;;2.19;100.00;95343.09;10483477;28;1899;-73
2022/02/02 06:47:01;;;;;;;;;;;3.20;99.90;;;2.19;100.00;95330.63;10493554;28;1954;-70
2022/02/02 06:52:09;;;;;;;;;;;3.50;99.90;;;2.22;100.00;95329.34;10491190;28;1975;-71
2022/02/02 06:57:17;;;;;;;;;;;3.20;99.90;;;2.25;100.00;95350.13;10488546;28;1986;-70
2022/02/02 07:02:33;;;;;;;;;;;3.20;99.90;;;2.40;100.00;95375.13;10499964;28;1962;-70
2022/02/02 07:07:44;;;;;;;;;;;3.30;99.90;;;2.47;100.00;95361.72;10492871;28;1902;-70
2022/02/02 07:12:56;;;;;;;;;;;3.50;99.90;;;2.65;100.00;95361.59;10500416;28;1788;-70
2022/02/02 07:18:16;;;;;;;;;;;3.60;99.90;;;2.71;100.00;95347.38;10488102;28;1848;-70
2022/02/02 07:23:44;;;;;;;;;;;3.70;99.90;;;2.80;100.00;95341.69;10489561;28;1901;-69
2022/02/02 07:28:56;;;;;;;;;;;3.80;99.90;;;2.82;100.00;95337.78;10493997;28;1918;-70
2022/02/02 07:33:59;;;;;;;;;;;3.80;99.90;;;2.93;100.00;95341.47;10497517;28;1817;-69
2022/02/02 07:39:02;;;;;;;;;;;3.90;99.90;;;2.98;100.00;95347.66;10484753;28;1821;-70
2022/02/02 07:44:09;;;;;;;;;;;4.00;99.90;;;2.95;100.00;95340.16;10493385;28;1781;-69
2022/02/02 07:49:13;;;;;;;;;;;4.00;99.90;;;3.02;100.00;95340.03;10493582;28;1902;-69
2022/02/02 07:54:19;;;;;;;;;;;4.00;99.90;;;3.00;100.00;95352.75;10492909;28;1907;-69
2022/02/02 07:59:42;;;;;;;;;;;4.00;99.90;;;3.03;100.00;95378.81;10489345;28;1741;-69
2022/02/02 08:04:45;;;;;;;;;;;4.00;99.90;;;3.01;100.00;95386.22;10485446;28;1923;-69
2022/02/02 08:09:57;;;;;;;;;;;4.40;99.90;;;3.07;100.00;95387.13;10477672;28;1965;-69
2022/02/02 08:15:01;;;;;;;;;;;4.10;99.90;;;3.09;100.00;95390.34;10496077;28;1807;-68
2022/02/02 08:20:03;;;;;;;;;;;4.10;99.90;;;3.19;100.00;95409.16;10487407;28;2027;-69
2022/02/02 08:25:06;;;;;;;;;;;4.20;99.90;;;3.27;100.00;95415.94;10478662;22;2067;-69
2022/02/02 08:30:09;;;;;;;;;;;4.30;99.90;;;3.47;100.00;95438.38;10454007;28;1903;-69
2022/02/02 08:35:13;;;;;;;;;;;4.40;99.90;;;3.56;100.00;95445.97;10440663;28;2214;-70
2022/02/02 08:40:27;;;;;;;;;;;4.50;99.90;;;3.63;100.00;95463.41;10441731;28;2424;-68
2022/02/02 08:45:33;;;;;;;;;;;4.60;99.90;;;3.51;100.00;95454.66;10440077;28;1915;-69
2022/02/02 08:50:45;;;;;;;;;;;4.70;99.90;;;3.69;100.00;95465.13;10439696;28;1844;-70
2022/02/02 08:56:05;;;;;;;;;;;4.60;99.90;;;3.96;100.00;95456.53;10457763;28;1882;-69
2022/02/02 09:01:15;;;;;;;;;;;4.80;99.90;;;4.26;100.00;95453.56;10448479;28;1983;-69
2022/02/02 09:06:18;;;;;;;;;;;5.10;99.90;;;4.26;100.00;95449.09;10444854;28;2135;-70
2022/02/02 09:38:04;;;;;;;;;;;5.60;99.90;;;4.75;99.56;95470.56;10447436;28;1852;-70
2022/02/02 09:43:08;;;;;;;;;;;5.70;99.90;;;4.77;98.82;95500.44;10448267;28;1837;-71
2022/02/02 09:48:20;;;;;;;;;;;5.80;99.90;;;4.84;98.69;95500.28;10453234;28;2059;-71
2022/02/02 09:53:34;;;;;;;;;;;6.30;99.90;;;4.97;98.38;95512.44;10455067;28;1820;-72
2022/02/02 09:59:04;;;;;;;;;;;5.80;99.90;;;5.09;97.12;95499.81;10454211;28;1809;-70
2022/02/02 10:04:14;;;;;;;;;;;6.00;99.90;;;5.10;96.91;95522.75;10459738;28;1764;-71
2022/02/02 10:09:25;;;;;;;;;;;6.10;99.90;;;5.27;95.70;95528.84;10468066;28;1891;-70
2022/02/02 10:14:29;;;;;;;;;;;6.10;99.90;;;4.96;97.17;95537.44;10449781;28;1861;-71
2022/02/02 10:19:36;;;;;;;;;;;6.10;99.90;;;4.76;100.00;95545.94;10452437;28;1873;-70
2022/02/02 10:24:39;;;;;;;;;;;5.90;99.90;;;4.99;100.00;95542.31;10449400;28;1805;-70
2022/02/02 10:29:42;;;;;;;;;;;6.30;99.90;;;4.92;100.00;95547.81;10445767;28;1922;-70
2022/02/02 10:34:45;;;;;;;;;;;6.00;99.90;;;4.73;99.86;95530.47;10446913;28;2377;-71
2022/02/02 10:39:49;;;;;;;;;;;5.80;99.90;;;4.83;99.23;95542.06;10448634;28;1751;-71
2022/02/02 10:44:58;;;;;;;;;;;5.80;99.90;;;4.75;96.45;95533.69;10478326;28;1888;-71
2022/02/02 10:50:06;;;;;;;;;;;5.80;99.90;;;4.79;94.64;95553.47;10487865;28;2059;-74
2022/02/02 10:55:31;;;;;;;;;;;5.80;99.90;;;5.01;93.50;95551.66;10482264;28;2155;-72
2022/02/02 11:00:49;;;;;;;;;;;5.90;99.90;;;5.10;91.47;95557.41;10451918;28;1853;-71
2022/02/02 11:11:20;;;;;;;;;;;6.10;99.90;;;4.86;91.90;95562.91;10446243;28;1815;-71
2022/02/02 11:16:22;;;;;;;;;;;6.00;99.90;;;4.85;92.06;95581.78;10446346;28;1869;-71
2022/02/02 11:21:26;;;;;;;;;;;6.10;99.90;;;4.92;91.87;95569.13;10444856;28;1808;-71
2022/02/02 11:26:29;;;;;;;;;;;5.90;99.90;;;5.07;90.90;95568.53;10447939;28;1914;-71
2022/02/02 11:31:33;;;;;;;;;;;6.00;99.90;;;5.14;90.01;95575.28;10482826;28;1524;-72
2022/02/02 11:36:39;;;;;;;;;;;6.10;99.90;;;5.42;88.51;95561.06;10480164;28;1908;-70
2022/02/02 11:41:50;;;;;;;;;;;6.20;99.90;;;5.36;89.41;95561.22;10468602;28;1901;-70
2022/02/02 11:46:55;;;;;;;;;;;6.40;99.90;;;5.35;86.97;95557.75;10442720;28;1918;-70
2022/02/02 11:52:01;;;;;;;;;;;6.30;99.90;;;5.30;85.48;95549.69;10443327;28;1896;-71
2022/02/02 11:57:11;;;;;;;;;;;6.30;99.90;;;5.55;85.60;95548.41;10442640;28;1808;-72
2022/02/02 12:07:51;;;;;;;;;;;6.50;99.90;;;5.40;85.13;95557.00;10440612;28;1906;-71
2022/02/02 12:56:17;;;;;;;;;;;7.20;99.90;;;5.66;82.30;95555.47;10449447;28;2298;-70
2022/02/02 13:01:21;;;;;;;;;;;6.80;99.90;;;5.43;83.93;95576.00;10448740;28;2006;-71
2022/02/02 13:06:24;;;;;;;;;;;6.50;99.90;;;5.70;82.78;95572.59;10448338;28;1914;-70
2022/02/02 13:11:31;;;;;;;;;;;6.70;99.90;;;5.70;80.32;95594.75;10448030;28;1872;-68
2022/02/02 13:16:35;;;;;;;;;;;6.70;99.90;;;5.80;81.96;95595.94;10449017;28;2363;-69
2022/02/02 13:21:45;;;;;;;;;;;6.70;99.90;;;6.00;82.47;95600.75;10447899;28;1810;-70
2022/02/02 13:26:56;;;;;;;;;;;7.00;99.90;;;5.72;83.61;95626.50;10445525;28;1910;-69
2022/02/02 13:32:04;;;;;;;;;;;6.80;99.90;;;5.33;89.57;95634.47;10445479;28;1910;-70
2022/02/02 13:37:17;;;;;;;;;;;6.60;99.90;;;4.94;97.09;95638.91;10445820;28;1891;-69
2022/02/02 13:48:02;;;;;;;;;;;5.90;99.90;;;4.30;100.00;95680.88;10445334;28;1965;-70
2022/02/02 13:53:23;;;;;;;;;;;6.00;99.90;;;3.61;100.00;95688.75;10448224;28;1868;-70
2022/02/02 13:58:41;;;;;;;;;;;4.80;99.90;;;3.76;100.00;95701.59;10465102;28;1815;-70
2022/02/02 14:04:07;;;;;;;;;;;4.60;99.90;;;3.93;100.00;95722.94;10450002;28;1813;-69
2022/02/02 14:09:15;;;;;;;;;;;4.80;99.90;;;4.01;100.00;95725.28;10463560;28;2017;-69
2022/02/02 14:35:39;;;;;;;;;;;5.30;99.90;;;4.59;97.02;95753.59;10532430;28;1984;-72
2022/02/02 14:40:55;;;;;;;;;;;5.50;99.90;;;4.70;97.57;95763.38;10554208;28;1799;-71
2022/02/02 14:46:01;;;;;;;;;;;5.60;99.90;;;4.56;93.88;95786.00;10558320;28;1833;-72
2022/02/02 14:51:14;;;;;;;;;;;5.60;99.90;;;4.38;97.44;95821.56;10562044;28;1984;-72
2022/02/02 15:24:10;;;;;;;;;;;3.80;99.90;;;3.04;100.00;95842.50;10556156;28;1834;-71
2022/02/02 15:29:16;;;;;;;;;;;4.00;99.90;;;3.02;100.00;95857.84;10551245;28;1913;-71
2022/02/02 15:34:27;;;;;;;;;;;4.10;99.90;;;3.30;100.00;95853.78;10544309;28;1778;-71
2022/02/02 15:39:35;;;;;;;;;;;4.20;99.90;;;3.40;100.00;95862.84;10553829;28;1866;-70
2022/02/02 15:56:15;;;;;;;;;;;4.60;99.90;;;3.83;100.00;95885.75;10533624;28;1838;-70
2022/02/02 16:06:31;;;;;;;;;;;5.00;99.90;;;3.86;99.79;95903.09;10565933;28;1772;-68
2022/02/02 16:11:34;;;;;;;;;;;4.90;99.90;;;3.85;98.34;95917.41;10567401;28;1984;-69
2022/02/02 16:16:54;;;;;;;;;;;5.00;99.90;;;3.74;99.92;95916.34;10566921;28;1802;-69
2022/02/02 16:33:14;;;;;;;;;;;4.80;99.90;;;3.72;97.98;95907.78;10559868;28;1941;-69
2022/02/02 16:38:19;;;;;;;;;;;4.80;99.90;;;3.82;94.63;95899.25;10567427;28;1807;-70
2022/02/02 16:43:22;;;;;;;;;;;4.90;99.90;;;3.84;94.79;95913.94;10560806;28;1833;-68
2022/02/02 16:48:25;;;;;;;;;;;4.90;99.90;;;3.82;94.76;95917.84;10562629;28;1926;-69
2022/02/02 16:53:37;;;;;;;;;;;4.90;99.90;;;3.88;91.00;95916.94;10562708;28;1835;-69
2022/02/02 17:30:54;;;;;;;;;;;5.00;99.90;;;3.68;89.41;95971.22;10561191;28;1914;-70
2022/02/02 17:36:12;;;;;;;;;;;4.90;99.90;;;3.65;91.10;95968.22;10555975;28;1868;-69
2022/02/02 17:41:54;;;;;;;;;;;4.80;99.90;;;3.66;93.79;95972.50;10566045;28;1901;-69
2022/02/02 18:19:10;;;;;;;;;;;4.50;99.90;;;3.44;100.00;96031.47;10554052;28;1834;-66
2022/02/02 18:24:18;;;;;;;;;;;4.60;99.90;;;3.55;100.00;96037.84;10554415;28;1952;-70
2022/02/02 18:29:27;;;;;;;;;;;4.60;99.90;;;3.52;100.00;96046.28;10551445;28;1976;-71
2022/02/02 18:34:39;;;;;;;;;;;4.70;99.90;;;3.56;100.00;96051.94;10555964;28;1838;-68
2022/02/02 18:45:43;;;;;;;;;;;4.60;99.90;;;3.45;100.00;96082.75;10554786;28;1844;-72
2022/02/02 18:56:23;;;;;;;;;;;4.40;99.90;;;2.75;100.00;96127.34;10555699;28;2466;-72
2022/02/02 19:01:36;;;;;;;;;;;4.00;99.90;;;2.45;100.00;96125.28;10562914;28;1825;-74
2022/02/02 20:05:38;;;;;;;;;;;3.60;99.90;;;2.59;100.00;96158.66;10567068;28;1830;-73
2022/02/02 20:10:58;;;;;;;;;;;3.70;99.90;;;2.66;100.00;96163.91;10560832;28;1914;-73
2022/02/02 20:16:01;;;;;;;;;;;3.70;99.90;;;2.80;100.00;96180.56;10595195;28;1806;-71
2022/02/02 20:21:07;;;;;;;;;;;3.80;99.90;;;2.87;100.00;96181.38;10595966;28;1934;-71
2022/02/02 20:26:12;;;;;;;;;;;3.90;99.90;;;2.92;100.00;96181.50;10558091;22;1995;-70
2022/02/02 20:31:15;;;;;;;;;;;4.00;99.90;;;3.00;100.00;96181.25;10500960;28;2123;-71
2022/02/02 20:36:18;;;;;;;;;;;4.00;99.90;;;2.98;100.00;96178.00;10480692;28;1800;-70
2022/02/02 20:41:21;;;;;;;;;;;4.00;99.90;;;3.00;100.00;96191.06;10482474;28;1853;-69
2022/02/02 20:46:46;;;;;;;;;;;4.00;99.90;;;3.08;100.00;96201.44;10484021;28;2145;-70
2022/02/02 21:08:19;;;;;;;;;;;4.00;99.90;;;2.83;100.00;96228.75;10490617;28;1969;-70
2022/02/02 21:13:44;;;;;;;;;;;3.90;99.90;;;2.59;100.00;96248.91;10488876;28;1915;-70
2022/02/02 21:18:53;;;;;;;;;;;3.90;99.90;;;2.44;100.00;96243.06;10488928;28;1792;-70
2022/02/02 21:29:13;;;;;;;;;;;3.50;99.90;;;2.49;100.00;96248.56;10488528;28;1910;-71
2022/02/02 21:34:18;;;;;;;;;;;3.50;99.90;;;2.54;100.00;96239.94;10507501;28;1902;-70
2022/02/02 21:39:24;;;;;;;;;;;3.50;99.90;;;2.83;100.00;96244.69;10489557;28;2261;-71
2022/02/02 21:44:27;;;;;;;;;;;3.70;99.90;;;2.70;100.00;96234.16;10487620;28;1737;-70
2022/02/02 21:49:30;;;;;;;;;;;3.80;99.90;;;2.59;100.00;96237.47;10489533;28;1983;-69
2022/02/02 21:54:35;;;;;;;;;;;3.70;99.90;;;2.52;100.00;96236.69;10489022;28;1928;-69
2022/02/02 21:59:39;;;;;;;;;;;3.70;99.90;;;2.41;100.00;96241.63;10483262;28;1794;-73
2022/02/02 22:04:42;;;;;;;;;;;3.60;99.90;;;2.34;100.00;96245.34;10483512;28;1853;-69
2022/02/02 22:09:49;;;;;;;;;;;3.50;99.90;;;2.30;100.00;96249.44;10485092;28;1952;-69
2022/02/02 22:14:53;;;;;;;;;;;3.50;99.90;;;2.24;100.00;96251.09;10517777;28;1490;-69
2022/02/02 22:19:58;;;;;;;;;;;3.50;99.90;;;2.16;100.00;96254.81;10515062;28;1790;-70
2022/02/02 22:25:00;;;;;;;;;;;3.40;99.90;;;2.20;100.00;96247.22;10510694;28;1802;-69
2022/02/02 22:30:04;;;;;;;;;;;3.40;99.90;;;2.18;100.00;96254.59;10502423;28;1949;-70
2022/02/02 22:35:07;;;;;;;;;;;3.40;99.90;;;2.14;100.00;96248.88;10499078;28;2115;-70
2022/02/02 22:40:10;;;;;;;;;;;3.40;99.90;;;2.19;100.00;96250.91;10511546;28;1788;-71
2022/02/02 22:45:14;;;;;;;;;;;3.40;99.90;;;2.22;100.00;96250.47;10516147;28;1806;-70
2022/02/02 22:50:19;;;;;;;;;;;3.30;99.90;;;2.16;100.00;96254.81;10499758;28;1937;-70
2022/02/02 22:55:22;;;;;;;;;;;3.40;99.90;;;2.23;100.00;96251.28;10495490;28;1960;-69
2022/02/02 23:00:25;;;;;;;;;;;3.40;99.90;;;2.22;100.00;96268.22;10493423;28;1861;-70
2022/02/02 23:05:35;;;;;;;;;;;3.40;99.90;;;2.29;100.00;96274.31;10498436;28;1852;-71
2022/02/02 23:10:39;;;;;;;;;;;3.40;99.90;;;2.44;100.00;96274.91;10495408;28;1968;-70
2022/02/02 23:15:48;;;;;;;;;;;3.50;99.90;;;2.51;100.00;96269.56;10507310;28;1877;-69
2022/02/02 23:20:54;;;;;;;;;;;3.60;99.90;;;2.68;100.00;96278.69;10495200;28;1828;-70
2022/02/02 23:25:58;;;;;;;;;;;3.70;99.90;;;2.63;100.00;96268.69;10483189;28;1819;-70
2022/02/02 23:31:04;;;;;;;;;;;3.80;99.90;;;2.55;100.00;96284.06;10484959;28;1902;-69
2022/02/02 23:36:08;;;;;;;;;;;3.70;99.90;;;2.50;100.00;96282.03;10483334;28;1834;-70
2022/02/02 23:46:41;;;;;;;;;;;3.70;99.90;;;2.61;100.00;96284.03;10484166;28;1877;-70
2022/02/02 23:51:44;;;;;;;;;;;3.70;99.90;;;2.71;100.00;96278.25;10466871;28;2046;-69
2022/02/02 23:56:54;;;;;;;;;;;3.80;99.90;;;2.75;100.00;96276.00;10480575;28;2209;-70
